sensor_id;sensor_type;location;lat;lon;timestamp;P1;P2;P0
70255;PMS5003;57669;52.624;-1.688;2022-07-09T00:00:37;6;6;
70255;PMS5003;57669;52.624;-1.688;2022-07-09T00:03:03;7;6;
70255;PMS5003;57669;52.624;-1.688;2022-07-09T00:05:29;7;6;
70255;PMS5003;57669;52.624;-1.688;2022-07-09T00:07:54;5;5;
70255;PMS5003;57669;52.624;-1.688;2022-07-09T00:10:20;10;9;
70255;PMS5003;57669;52.624;-1.688;2022-07-09T00:12:45;8;7;
70255;PMS5003;57669;52.624;-1.688;2022-07-09T00:15:11;9;8;
70255;PMS5003;57669;52.624;-1.688;2022-07-09T00:17:37;7;7;
70255;PMS5003;57669;52.624;-1.688;2022-07-09T00:20:02;10;9;
70255;PMS5003;57669;52.624;-1.688;2022-07-09T00:22:28;8;8;
70255;PMS5003;57669;52.624;-1.688;2022-07-09T00:24:53;8;7;
70255;PMS5003;57669;52.624;-1.688;2022-07-09T00:27:19;7;7;
70255;PMS5003;57669;52.624;-1.688;2022-07-09T00:29:45;6;6;
70255;PMS5003;57669;52.624;-1.688;2022-07-09T00:32:10;6;6;
70255;PMS5003;57669;52.624;-1.688;2022-07-09T00:34:36;7;6;
70255;PMS5003;57669;52.624;-1.688;2022-07-09T00:37:02;8;8;
70255;PMS5003;57669;52.624;-1.688;2022-07-09T00:39:27;8;7;
70255;PMS5003;57669;52.624;-1.688;2022-07-09T00:44:19;6;6;
70255;PMS5003;57669;52.624;-1.688;2022-07-09T00:46:44;7;7;
70255;PMS5003;57669;52.624;-1.688;2022-07-09T00:49:10;7;7;
70255;PMS5003;57669;52.624;-1.688;2022-07-09T00:51:35;8;8;
70255;PMS5003;57669;52.624;-1.688;2022-07-09T00:54:02;7;6;
70255;PMS5003;57669;52.624;-1.688;2022-07-09T00:56:27;8;8;
70255;PMS5003;57669;52.624;-1.688;2022-07-09T00:58:52;7;7;
70255;PMS5003;57669;52.624;-1.688;2022-07-09T01:01:18;9;8;
70255;PMS5003;57669;52.624;-1.688;2022-07-09T01:03:44;6;6;
70255;PMS5003;57669;52.624;-1.688;2022-07-09T01:06:09;8;7;
70255;PMS5003;57669;52.624;-1.688;2022-07-09T01:08:35;9;8;
70255;PMS5003;57669;52.624;-1.688;2022-07-09T01:11:01;7;7;
70255;PMS5003;57669;52.624;-1.688;2022-07-09T01:15:52;7;7;
70255;PMS5003;57669;52.624;-1.688;2022-07-09T01:18:18;8;7;
70255;PMS5003;57669;52.624;-1.688;2022-07-09T01:20:43;6;6;
70255;PMS5003;57669;52.624;-1.688;2022-07-09T01:23:09;9;8;
70255;PMS5003;57669;52.624;-1.688;2022-07-09T01:25:36;7;7;
70255;PMS5003;57669;52.624;-1.688;2022-07-09T01:28:00;8;6;
70255;PMS5003;57669;52.624;-1.688;2022-07-09T01:30:27;7;7;
70255;PMS5003;57669;52.624;-1.688;2022-07-09T01:32:52;7;7;
70255;PMS5003;57669;52.624;-1.688;2022-07-09T01:35:17;10;9;
70255;PMS5003;57669;52.624;-1.688;2022-07-09T01:37:43;5;5;
70255;PMS5003;57669;52.624;-1.688;2022-07-09T01:40:09;7;7;
70255;PMS5003;57669;52.624;-1.688;2022-07-09T01:42:34;8;7;
70255;PMS5003;57669;52.624;-1.688;2022-07-09T01:45:00;8;7;
70255;PMS5003;57669;52.624;-1.688;2022-07-09T01:47:26;7;6;
70255;PMS5003;57669;52.624;-1.688;2022-07-09T01:49:51;9;9;
70255;PMS5003;57669;52.624;-1.688;2022-07-09T01:52:17;9;9;
70255;PMS5003;57669;52.624;-1.688;2022-07-09T01:54:42;7;7;
70255;PMS5003;57669;52.624;-1.688;2022-07-09T01:57:08;6;6;
70255;PMS5003;57669;52.624;-1.688;2022-07-09T01:59:34;6;5;
70255;PMS5003;57669;52.624;-1.688;2022-07-09T02:01:59;7;7;
70255;PMS5003;57669;52.624;-1.688;2022-07-09T02:04:25;7;7;
70255;PMS5003;57669;52.624;-1.688;2022-07-09T02:06:50;7;6;
70255;PMS5003;57669;52.624;-1.688;2022-07-09T02:09:16;6;6;
70255;PMS5003;57669;52.624;-1.688;2022-07-09T02:11:42;7;7;
70255;PMS5003;57669;52.624;-1.688;2022-07-09T02:14:07;9;9;
70255;PMS5003;57669;52.624;-1.688;2022-07-09T02:16:33;7;7;
70255;PMS5003;57669;52.624;-1.688;2022-07-09T02:18:58;9;9;
70255;PMS5003;57669;52.624;-1.688;2022-07-09T02:21:24;8;8;
70255;PMS5003;57669;52.624;-1.688;2022-07-09T02:23:49;8;8;
70255;PMS5003;57669;52.624;-1.688;2022-07-09T02:26:15;5;5;
70255;PMS5003;57669;52.624;-1.688;2022-07-09T02:28:41;7;7;
70255;PMS5003;57669;52.624;-1.688;2022-07-09T02:31:07;6;6;
70255;PMS5003;57669;52.624;-1.688;2022-07-09T02:33:32;5;5;
70255;PMS5003;57669;52.624;-1.688;2022-07-09T02:35:58;9;9;
70255;PMS5003;57669;52.624;-1.688;2022-07-09T02:38:24;9;9;
70255;PMS5003;57669;52.624;-1.688;2022-07-09T02:40:49;10;7;
70255;PMS5003;57669;52.624;-1.688;2022-07-09T02:43:15;5;5;
70255;PMS5003;57669;52.624;-1.688;2022-07-09T02:45:41;10;8;
70255;PMS5003;57669;52.624;-1.688;2022-07-09T02:48:06;7;6;
70255;PMS5003;57669;52.624;-1.688;2022-07-09T02:50:32;8;8;
70255;PMS5003;57669;52.624;-1.688;2022-07-09T02:52:57;7;7;
70255;PMS5003;57669;52.624;-1.688;2022-07-09T02:55:23;7;7;
70255;PMS5003;57669;52.624;-1.688;2022-07-09T02:57:49;7;7;
70255;PMS5003;57669;52.624;-1.688;2022-07-09T03:00:14;7;7;
70255;PMS5003;57669;52.624;-1.688;2022-07-09T03:02:40;6;6;
70255;PMS5003;57669;52.624;-1.688;2022-07-09T03:05:06;9;9;
70255;PMS5003;57669;52.624;-1.688;2022-07-09T03:07:32;6;6;
70255;PMS5003;57669;52.624;-1.688;2022-07-09T03:09:57;7;7;
70255;PMS5003;57669;52.624;-1.688;2022-07-09T03:12:23;5;5;
70255;PMS5003;57669;52.624;-1.688;2022-07-09T03:14:48;8;7;
70255;PMS5003;57669;52.624;-1.688;2022-07-09T03:17:14;6;6;
70255;PMS5003;57669;52.624;-1.688;2022-07-09T03:19:40;6;6;
70255;PMS5003;57669;52.624;-1.688;2022-07-09T03:22:05;6;6;
70255;PMS5003;57669;52.624;-1.688;2022-07-09T03:24:31;7;7;
70255;PMS5003;57669;52.624;-1.688;2022-07-09T03:26:57;7;7;
70255;PMS5003;57669;52.624;-1.688;2022-07-09T03:29:22;5;5;
70255;PMS5003;57669;52.624;-1.688;2022-07-09T03:31:48;7;7;
70255;PMS5003;57669;52.624;-1.688;2022-07-09T03:34:13;6;6;
70255;PMS5003;57669;52.624;-1.688;2022-07-09T03:36:39;6;5;
70255;PMS5003;57669;52.624;-1.688;2022-07-09T03:39:05;9;9;
70255;PMS5003;57669;52.624;-1.688;2022-07-09T03:41:30;7;6;
70255;PMS5003;57669;52.624;-1.688;2022-07-09T03:43:56;6;6;
70255;PMS5003;57669;52.624;-1.688;2022-07-09T03:46:22;7;6;
70255;PMS5003;57669;52.624;-1.688;2022-07-09T03:48:48;8;7;
70255;PMS5003;57669;52.624;-1.688;2022-07-09T03:51:13;7;7;
70255;PMS5003;57669;52.624;-1.688;2022-07-09T03:53:39;7;6;
70255;PMS5003;57669;52.624;-1.688;2022-07-09T03:56:05;7;7;
70255;PMS5003;57669;52.624;-1.688;2022-07-09T03:58:30;9;9;
70255;PMS5003;57669;52.624;-1.688;2022-07-09T04:00:56;9;8;
70255;PMS5003;57669;52.624;-1.688;2022-07-09T04:03:21;9;9;
70255;PMS5003;57669;52.624;-1.688;2022-07-09T04:05:47;8;8;
70255;PMS5003;57669;52.624;-1.688;2022-07-09T04:08:12;6;6;
70255;PMS5003;57669;52.624;-1.688;2022-07-09T04:10:38;7;7;
70255;PMS5003;57669;52.624;-1.688;2022-07-09T04:13:04;7;6;
70255;PMS5003;57669;52.624;-1.688;2022-07-09T04:15:29;8;8;
70255;PMS5003;57669;52.624;-1.688;2022-07-09T04:17:55;7;7;
70255;PMS5003;57669;52.624;-1.688;2022-07-09T04:20:21;6;6;
70255;PMS5003;57669;52.624;-1.688;2022-07-09T04:22:46;11;11;
70255;PMS5003;57669;52.624;-1.688;2022-07-09T04:25:11;10;9;
70255;PMS5003;57669;52.624;-1.688;2022-07-09T04:27:37;7;7;
70255;PMS5003;57669;52.624;-1.688;2022-07-09T04:30:03;7;7;
70255;PMS5003;57669;52.624;-1.688;2022-07-09T04:32:28;7;7;
70255;PMS5003;57669;52.624;-1.688;2022-07-09T04:34:53;12;12;
70255;PMS5003;57669;52.624;-1.688;2022-07-09T04:37:19;9;9;
70255;PMS5003;57669;52.624;-1.688;2022-07-09T04:39:45;12;11;
70255;PMS5003;57669;52.624;-1.688;2022-07-09T04:42:10;9;9;
70255;PMS5003;57669;52.624;-1.688;2022-07-09T04:44:35;11;11;
70255;PMS5003;57669;52.624;-1.688;2022-07-09T04:47:01;12;12;
70255;PMS5003;57669;52.624;-1.688;2022-07-09T04:49:26;12;10;
70255;PMS5003;57669;52.624;-1.688;2022-07-09T04:51:52;15;15;
70255;PMS5003;57669;52.624;-1.688;2022-07-09T04:54:17;9;9;
70255;PMS5003;57669;52.624;-1.688;2022-07-09T04:56:43;10;10;
70255;PMS5003;57669;52.624;-1.688;2022-07-09T04:59:09;10;10;
70255;PMS5003;57669;52.624;-1.688;2022-07-09T05:01:34;10;9;
70255;PMS5003;57669;52.624;-1.688;2022-07-09T05:04:00;13;12;
70255;PMS5003;57669;52.624;-1.688;2022-07-09T05:06:26;13;11;
70255;PMS5003;57669;52.624;-1.688;2022-07-09T05:08:52;11;11;
70255;PMS5003;57669;52.624;-1.688;2022-07-09T05:11:17;11;10;
70255;PMS5003;57669;52.624;-1.688;2022-07-09T05:13:42;16;16;
70255;PMS5003;57669;52.624;-1.688;2022-07-09T05:16:08;14;13;
70255;PMS5003;57669;52.624;-1.688;2022-07-09T05:18:33;17;16;
70255;PMS5003;57669;52.624;-1.688;2022-07-09T05:20:58;10;10;
70255;PMS5003;57669;52.624;-1.688;2022-07-09T05:23:24;13;13;
70255;PMS5003;57669;52.624;-1.688;2022-07-09T05:25:49;17;17;
70255;PMS5003;57669;52.624;-1.688;2022-07-09T05:28:15;16;16;
70255;PMS5003;57669;52.624;-1.688;2022-07-09T05:30:40;14;11;
70255;PMS5003;57669;52.624;-1.688;2022-07-09T05:33:05;15;15;
70255;PMS5003;57669;52.624;-1.688;2022-07-09T05:35:31;16;15;
70255;PMS5003;57669;52.624;-1.688;2022-07-09T05:37:56;17;16;
70255;PMS5003;57669;52.624;-1.688;2022-07-09T05:40:23;12;11;
70255;PMS5003;57669;52.624;-1.688;2022-07-09T05:42:48;13;11;
70255;PMS5003;57669;52.624;-1.688;2022-07-09T05:45:13;12;12;
70255;PMS5003;57669;52.624;-1.688;2022-07-09T05:47:39;12;12;
70255;PMS5003;57669;52.624;-1.688;2022-07-09T05:50:05;10;10;
70255;PMS5003;57669;52.624;-1.688;2022-07-09T05:52:30;14;13;
70255;PMS5003;57669;52.624;-1.688;2022-07-09T05:57:21;15;15;
70255;PMS5003;57669;52.624;-1.688;2022-07-09T05:59:46;13;13;
70255;PMS5003;57669;52.624;-1.688;2022-07-09T06:02:12;18;17;
70255;PMS5003;57669;52.624;-1.688;2022-07-09T06:04:37;13;13;
70255;PMS5003;57669;52.624;-1.688;2022-07-09T06:07:02;18;17;
70255;PMS5003;57669;52.624;-1.688;2022-07-09T06:09:27;16;16;
70255;PMS5003;57669;52.624;-1.688;2022-07-09T06:11:53;17;17;
70255;PMS5003;57669;52.624;-1.688;2022-07-09T06:14:18;16;15;
70255;PMS5003;57669;52.624;-1.688;2022-07-09T06:16:43;17;16;
70255;PMS5003;57669;52.624;-1.688;2022-07-09T06:19:09;16;16;
70255;PMS5003;57669;52.624;-1.688;2022-07-09T06:21:34;20;19;
70255;PMS5003;57669;52.624;-1.688;2022-07-09T06:24:00;20;19;
70255;PMS5003;57669;52.624;-1.688;2022-07-09T06:26:26;19;18;
70255;PMS5003;57669;52.624;-1.688;2022-07-09T06:28:51;22;22;
70255;PMS5003;57669;52.624;-1.688;2022-07-09T06:31:17;19;16;
70255;PMS5003;57669;52.624;-1.688;2022-07-09T06:33:43;22;21;
70255;PMS5003;57669;52.624;-1.688;2022-07-09T06:36:08;21;20;
70255;PMS5003;57669;52.624;-1.688;2022-07-09T06:38:34;16;16;
70255;PMS5003;57669;52.624;-1.688;2022-07-09T06:40:59;14;14;
70255;PMS5003;57669;52.624;-1.688;2022-07-09T06:43:24;11;10;
70255;PMS5003;57669;52.624;-1.688;2022-07-09T06:45:50;5;4;
70255;PMS5003;57669;52.624;-1.688;2022-07-09T06:48:16;4;4;
70255;PMS5003;57669;52.624;-1.688;2022-07-09T06:50:41;3;3;
70255;PMS5003;57669;52.624;-1.688;2022-07-09T06:53:07;3;3;
70255;PMS5003;57669;52.624;-1.688;2022-07-09T06:55:33;2;2;
70255;PMS5003;57669;52.624;-1.688;2022-07-09T06:57:58;3;3;
70255;PMS5003;57669;52.624;-1.688;2022-07-09T07:00:24;1;1;
70255;PMS5003;57669;52.624;-1.688;2022-07-09T07:02:49;1;1;
70255;PMS5003;57669;52.624;-1.688;2022-07-09T07:05:15;2;2;
70255;PMS5003;57669;52.624;-1.688;2022-07-09T07:07:41;0;0;
70255;PMS5003;57669;52.624;-1.688;2022-07-09T07:10:06;1;1;
70255;PMS5003;57669;52.624;-1.688;2022-07-09T07:12:32;1;1;
70255;PMS5003;57669;52.624;-1.688;2022-07-09T07:14:57;0;0;
70255;PMS5003;57669;52.624;-1.688;2022-07-09T07:17:23;0;0;
70255;PMS5003;57669;52.624;-1.688;2022-07-09T07:19:49;1;0;
70255;PMS5003;57669;52.624;-1.688;2022-07-09T07:22:14;0;0;
70255;PMS5003;57669;52.624;-1.688;2022-07-09T07:24:40;0;0;
70255;PMS5003;57669;52.624;-1.688;2022-07-09T07:27:06;0;0;
70255;PMS5003;57669;52.624;-1.688;2022-07-09T07:29:31;1;0;
70255;PMS5003;57669;52.624;-1.688;2022-07-09T07:31:57;1;0;
70255;PMS5003;57669;52.624;-1.688;2022-07-09T07:34:23;1;1;
70255;PMS5003;57669;52.624;-1.688;2022-07-09T07:36:48;0;0;
70255;PMS5003;57669;52.624;-1.688;2022-07-09T07:39:14;0;0;
70255;PMS5003;57669;52.624;-1.688;2022-07-09T07:41:40;0;0;
70255;PMS5003;57669;52.624;-1.688;2022-07-09T07:44:05;0;0;
70255;PMS5003;57669;52.624;-1.688;2022-07-09T07:46:31;1;1;
70255;PMS5003;57669;52.624;-1.688;2022-07-09T07:48:56;0;0;
70255;PMS5003;57669;52.624;-1.688;2022-07-09T07:51:22;0;0;
70255;PMS5003;57669;52.624;-1.688;2022-07-09T07:53:48;1;1;
70255;PMS5003;57669;52.624;-1.688;2022-07-09T07:56:13;0;0;
70255;PMS5003;57669;52.624;-1.688;2022-07-09T07:58:39;1;1;
70255;PMS5003;57669;52.624;-1.688;2022-07-09T08:01:05;0;0;
70255;PMS5003;57669;52.624;-1.688;2022-07-09T08:03:31;1;1;
70255;PMS5003;57669;52.624;-1.688;2022-07-09T08:05:56;1;1;
70255;PMS5003;57669;52.624;-1.688;2022-07-09T08:08:22;0;0;
70255;PMS5003;57669;52.624;-1.688;2022-07-09T08:10:48;1;1;
70255;PMS5003;57669;52.624;-1.688;2022-07-09T08:13:13;1;1;
70255;PMS5003;57669;52.624;-1.688;2022-07-09T08:15:39;1;1;
70255;PMS5003;57669;52.624;-1.688;2022-07-09T08:18:04;2;2;
70255;PMS5003;57669;52.624;-1.688;2022-07-09T08:20:30;2;2;
70255;PMS5003;57669;52.624;-1.688;2022-07-09T08:22:56;2;2;
70255;PMS5003;57669;52.624;-1.688;2022-07-09T08:25:21;2;2;
70255;PMS5003;57669;52.624;-1.688;2022-07-09T08:27:47;2;2;
70255;PMS5003;57669;52.624;-1.688;2022-07-09T08:30:13;2;2;
70255;PMS5003;57669;52.624;-1.688;2022-07-09T08:32:38;3;3;
70255;PMS5003;57669;52.624;-1.688;2022-07-09T08:35:04;3;3;
70255;PMS5003;57669;52.624;-1.688;2022-07-09T08:37:30;2;2;
70255;PMS5003;57669;52.624;-1.688;2022-07-09T08:39:55;1;1;
70255;PMS5003;57669;52.624;-1.688;2022-07-09T08:42:21;1;1;
70255;PMS5003;57669;52.624;-1.688;2022-07-09T08:44:47;2;1;
70255;PMS5003;57669;52.624;-1.688;2022-07-09T08:47:14;0;0;
70255;PMS5003;57669;52.624;-1.688;2022-07-09T08:49:38;2;2;
70255;PMS5003;57669;52.624;-1.688;2022-07-09T08:52:04;2;2;
70255;PMS5003;57669;52.624;-1.688;2022-07-09T08:54:29;1;1;
70255;PMS5003;57669;52.624;-1.688;2022-07-09T08:56:55;2;2;
70255;PMS5003;57669;52.624;-1.688;2022-07-09T08:59:20;1;1;
70255;PMS5003;57669;52.624;-1.688;2022-07-09T09:01:46;0;0;
70255;PMS5003;57669;52.624;-1.688;2022-07-09T09:04:12;1;1;
70255;PMS5003;57669;52.624;-1.688;2022-07-09T09:06:38;0;0;
70255;PMS5003;57669;52.624;-1.688;2022-07-09T09:09:03;1;1;
70255;PMS5003;57669;52.624;-1.688;2022-07-09T09:11:29;1;1;
70255;PMS5003;57669;52.624;-1.688;2022-07-09T09:13:54;2;1;
70255;PMS5003;57669;52.624;-1.688;2022-07-09T09:16:20;1;1;
70255;PMS5003;57669;52.624;-1.688;2022-07-09T09:18:46;1;1;
70255;PMS5003;57669;52.624;-1.688;2022-07-09T09:21:11;1;1;
70255;PMS5003;57669;52.624;-1.688;2022-07-09T09:23:38;2;2;
70255;PMS5003;57669;52.624;-1.688;2022-07-09T09:26:07;4;4;
70255;PMS5003;57669;52.624;-1.688;2022-07-09T09:28:28;2;2;
70255;PMS5003;57669;52.624;-1.688;2022-07-09T09:33:19;2;2;
70255;PMS5003;57669;52.624;-1.688;2022-07-09T09:35:45;1;1;
70255;PMS5003;57669;52.624;-1.688;2022-07-09T09:38:11;3;2;
70255;PMS5003;57669;52.624;-1.688;2022-07-09T09:40:36;0;0;
70255;PMS5003;57669;52.624;-1.688;2022-07-09T09:43:02;0;0;
70255;PMS5003;57669;52.624;-1.688;2022-07-09T09:45:28;3;3;
70255;PMS5003;57669;52.624;-1.688;2022-07-09T09:47:53;2;2;
70255;PMS5003;57669;52.624;-1.688;2022-07-09T09:50:19;3;3;
70255;PMS5003;57669;52.624;-1.688;2022-07-09T09:55:10;2;2;
70255;PMS5003;57669;52.624;-1.688;2022-07-09T09:57:35;1;1;
70255;PMS5003;57669;52.624;-1.688;2022-07-09T10:00:01;2;2;
70255;PMS5003;57669;52.624;-1.688;2022-07-09T10:02:27;2;2;
70255;PMS5003;57669;52.624;-1.688;2022-07-09T10:04:52;2;2;
70255;PMS5003;57669;52.624;-1.688;2022-07-09T10:07:18;3;3;
70255;PMS5003;57669;52.624;-1.688;2022-07-09T10:12:09;1;1;
70255;PMS5003;57669;52.624;-1.688;2022-07-09T10:14:36;2;2;
70255;PMS5003;57669;52.624;-1.688;2022-07-09T10:19:26;2;2;
70255;PMS5003;57669;52.624;-1.688;2022-07-09T10:21:52;1;1;
70255;PMS5003;57669;52.624;-1.688;2022-07-09T10:24:23;2;2;
70255;PMS5003;57669;52.624;-1.688;2022-07-09T10:26:43;2;2;
70255;PMS5003;57669;52.624;-1.688;2022-07-09T10:31:34;5;5;
70255;PMS5003;57669;52.624;-1.688;2022-07-09T10:34:01;5;5;
70255;PMS5003;57669;52.624;-1.688;2022-07-09T10:36:25;5;4;
70255;PMS5003;57669;52.624;-1.688;2022-07-09T10:41:20;5;5;
70255;PMS5003;57669;52.624;-1.688;2022-07-09T10:43:43;5;5;
70255;PMS5003;57669;52.624;-1.688;2022-07-09T10:46:09;5;5;
70255;PMS5003;57669;52.624;-1.688;2022-07-09T10:48:33;4;4;
70255;PMS5003;57669;52.624;-1.688;2022-07-09T10:50:59;4;4;
70255;PMS5003;57669;52.624;-1.688;2022-07-09T10:53:27;9;9;
70255;PMS5003;57669;52.624;-1.688;2022-07-09T10:55:50;6;6;
70255;PMS5003;57669;52.624;-1.688;2022-07-09T10:58:16;4;4;
70255;PMS5003;57669;52.624;-1.688;2022-07-09T11:00:42;3;3;
70255;PMS5003;57669;52.624;-1.688;2022-07-09T11:03:07;4;4;
70255;PMS5003;57669;52.624;-1.688;2022-07-09T11:05:34;3;2;
70255;PMS5003;57669;52.624;-1.688;2022-07-09T11:08:00;4;3;
70255;PMS5003;57669;52.624;-1.688;2022-07-09T11:10:24;2;2;
70255;PMS5003;57669;52.624;-1.688;2022-07-09T11:12:50;2;2;
70255;PMS5003;57669;52.624;-1.688;2022-07-09T11:15:17;3;3;
70255;PMS5003;57669;52.624;-1.688;2022-07-09T11:17:41;3;2;
70255;PMS5003;57669;52.624;-1.688;2022-07-09T11:20:07;2;2;
70255;PMS5003;57669;52.624;-1.688;2022-07-09T11:22:32;4;4;
70255;PMS5003;57669;52.624;-1.688;2022-07-09T11:24:58;3;2;
70255;PMS5003;57669;52.624;-1.688;2022-07-09T11:27:23;2;2;
70255;PMS5003;57669;52.624;-1.688;2022-07-09T11:29:49;2;2;
70255;PMS5003;57669;52.624;-1.688;2022-07-09T11:32:15;2;2;
70255;PMS5003;57669;52.624;-1.688;2022-07-09T11:37:06;2;2;
70255;PMS5003;57669;52.624;-1.688;2022-07-09T11:39:32;3;3;
70255;PMS5003;57669;52.624;-1.688;2022-07-09T11:41:58;3;2;
70255;PMS5003;57669;52.624;-1.688;2022-07-09T11:44:23;1;1;
70255;PMS5003;57669;52.624;-1.688;2022-07-09T11:49:14;2;2;
70255;PMS5003;57669;52.624;-1.688;2022-07-09T11:51:39;1;1;
70255;PMS5003;57669;52.624;-1.688;2022-07-09T11:54:05;2;2;
70255;PMS5003;57669;52.624;-1.688;2022-07-09T11:58:56;2;2;
70255;PMS5003;57669;52.624;-1.688;2022-07-09T12:01:22;4;4;
70255;PMS5003;57669;52.624;-1.688;2022-07-09T12:03:48;2;2;
70255;PMS5003;57669;52.624;-1.688;2022-07-09T12:06:13;2;2;
70255;PMS5003;57669;52.624;-1.688;2022-07-09T12:08:38;2;2;
70255;PMS5003;57669;52.624;-1.688;2022-07-09T12:11:04;3;2;
70255;PMS5003;57669;52.624;-1.688;2022-07-09T12:15:55;2;2;
70255;PMS5003;57669;52.624;-1.688;2022-07-09T12:18:21;2;1;
70255;PMS5003;57669;52.624;-1.688;2022-07-09T12:23:12;3;3;
70255;PMS5003;57669;52.624;-1.688;2022-07-09T12:25:38;3;3;
70255;PMS5003;57669;52.624;-1.688;2022-07-09T12:28:03;1;1;
70255;PMS5003;57669;52.624;-1.688;2022-07-09T12:30:29;1;1;
70255;PMS5003;57669;52.624;-1.688;2022-07-09T12:32:54;1;1;
70255;PMS5003;57669;52.624;-1.688;2022-07-09T12:37:45;2;2;
70255;PMS5003;57669;52.624;-1.688;2022-07-09T12:40:11;1;1;
70255;PMS5003;57669;52.624;-1.688;2022-07-09T12:42:37;3;3;
70255;PMS5003;57669;52.624;-1.688;2022-07-09T12:45:02;3;3;
70255;PMS5003;57669;52.624;-1.688;2022-07-09T12:47:27;3;3;
70255;PMS5003;57669;52.624;-1.688;2022-07-09T12:49:53;2;2;
70255;PMS5003;57669;52.624;-1.688;2022-07-09T12:52:18;2;2;
70255;PMS5003;57669;52.624;-1.688;2022-07-09T12:54:44;2;2;
70255;PMS5003;57669;52.624;-1.688;2022-07-09T12:57:10;2;1;
70255;PMS5003;57669;52.624;-1.688;2022-07-09T12:59:35;1;1;
70255;PMS5003;57669;52.624;-1.688;2022-07-09T13:02:01;1;1;
70255;PMS5003;57669;52.624;-1.688;2022-07-09T13:04:26;1;1;
70255;PMS5003;57669;52.624;-1.688;2022-07-09T13:06:52;0;0;
70255;PMS5003;57669;52.624;-1.688;2022-07-09T13:09:17;2;1;
70255;PMS5003;57669;52.624;-1.688;2022-07-09T13:11:43;2;2;
70255;PMS5003;57669;52.624;-1.688;2022-07-09T13:14:08;1;1;
70255;PMS5003;57669;52.624;-1.688;2022-07-09T13:16:34;2;2;
70255;PMS5003;57669;52.624;-1.688;2022-07-09T13:18:59;1;1;
70255;PMS5003;57669;52.624;-1.688;2022-07-09T13:21:25;2;1;
70255;PMS5003;57669;52.624;-1.688;2022-07-09T13:23:50;0;0;
70255;PMS5003;57669;52.624;-1.688;2022-07-09T13:26:16;0;0;
70255;PMS5003;57669;52.624;-1.688;2022-07-09T13:28:41;1;1;
70255;PMS5003;57669;52.624;-1.688;2022-07-09T13:31:07;2;1;
70255;PMS5003;57669;52.624;-1.688;2022-07-09T13:33:32;0;0;
70255;PMS5003;57669;52.624;-1.688;2022-07-09T13:35:58;1;1;
70255;PMS5003;57669;52.624;-1.688;2022-07-09T13:38:23;1;1;
70255;PMS5003;57669;52.624;-1.688;2022-07-09T13:40:49;1;1;
70255;PMS5003;57669;52.624;-1.688;2022-07-09T13:43:14;2;2;
70255;PMS5003;57669;52.624;-1.688;2022-07-09T13:45:40;0;0;
70255;PMS5003;57669;52.624;-1.688;2022-07-09T13:48:05;0;0;
70255;PMS5003;57669;52.624;-1.688;2022-07-09T13:50:30;3;2;
70255;PMS5003;57669;52.624;-1.688;2022-07-09T13:52:56;0;0;
70255;PMS5003;57669;52.624;-1.688;2022-07-09T13:55:21;1;1;
70255;PMS5003;57669;52.624;-1.688;2022-07-09T13:57:47;2;2;
70255;PMS5003;57669;52.624;-1.688;2022-07-09T14:00:13;1;1;
70255;PMS5003;57669;52.624;-1.688;2022-07-09T14:02:38;2;2;
70255;PMS5003;57669;52.624;-1.688;2022-07-09T14:05:04;2;2;
70255;PMS5003;57669;52.624;-1.688;2022-07-09T14:07:29;2;2;
70255;PMS5003;57669;52.624;-1.688;2022-07-09T14:09:54;2;2;
70255;PMS5003;57669;52.624;-1.688;2022-07-09T14:12:20;1;1;
70255;PMS5003;57669;52.624;-1.688;2022-07-09T14:14:45;1;1;
70255;PMS5003;57669;52.624;-1.688;2022-07-09T14:17:11;2;2;
70255;PMS5003;57669;52.624;-1.688;2022-07-09T14:19:36;1;1;
70255;PMS5003;57669;52.624;-1.688;2022-07-09T14:22:02;1;1;
70255;PMS5003;57669;52.624;-1.688;2022-07-09T14:24:27;2;2;
70255;PMS5003;57669;52.624;-1.688;2022-07-09T14:26:53;2;1;
70255;PMS5003;57669;52.624;-1.688;2022-07-09T14:29:18;1;0;
70255;PMS5003;57669;52.624;-1.688;2022-07-09T14:31:44;1;1;
70255;PMS5003;57669;52.624;-1.688;2022-07-09T14:34:09;2;2;
70255;PMS5003;57669;52.624;-1.688;2022-07-09T14:36:35;2;2;
70255;PMS5003;57669;52.624;-1.688;2022-07-09T14:39:00;3;3;
70255;PMS5003;57669;52.624;-1.688;2022-07-09T14:41:25;2;2;
70255;PMS5003;57669;52.624;-1.688;2022-07-09T14:43:51;1;1;
70255;PMS5003;57669;52.624;-1.688;2022-07-09T14:46:16;0;0;
70255;PMS5003;57669;52.624;-1.688;2022-07-09T14:48:42;2;2;
70255;PMS5003;57669;52.624;-1.688;2022-07-09T14:51:07;3;2;
70255;PMS5003;57669;52.624;-1.688;2022-07-09T14:53:33;0;0;
70255;PMS5003;57669;52.624;-1.688;2022-07-09T14:55:58;1;1;
70255;PMS5003;57669;52.624;-1.688;2022-07-09T14:58:24;0;0;
70255;PMS5003;57669;52.624;-1.688;2022-07-09T15:00:49;2;2;
70255;PMS5003;57669;52.624;-1.688;2022-07-09T15:03:15;1;0;
70255;PMS5003;57669;52.624;-1.688;2022-07-09T15:05:40;3;2;
70255;PMS5003;57669;52.624;-1.688;2022-07-09T15:08:06;1;1;
70255;PMS5003;57669;52.624;-1.688;2022-07-09T15:10:31;1;1;
70255;PMS5003;57669;52.624;-1.688;2022-07-09T15:12:57;2;2;
70255;PMS5003;57669;52.624;-1.688;2022-07-09T15:15:22;2;1;
70255;PMS5003;57669;52.624;-1.688;2022-07-09T15:17:47;2;2;
70255;PMS5003;57669;52.624;-1.688;2022-07-09T15:20:13;1;1;
70255;PMS5003;57669;52.624;-1.688;2022-07-09T15:22:38;1;1;
70255;PMS5003;57669;52.624;-1.688;2022-07-09T15:25:04;1;1;
70255;PMS5003;57669;52.624;-1.688;2022-07-09T15:27:29;1;1;
70255;PMS5003;57669;52.624;-1.688;2022-07-09T15:29:55;0;0;
70255;PMS5003;57669;52.624;-1.688;2022-07-09T15:32:20;1;1;
70255;PMS5003;57669;52.624;-1.688;2022-07-09T15:34:46;1;1;
70255;PMS5003;57669;52.624;-1.688;2022-07-09T15:37:11;2;2;
70255;PMS5003;57669;52.624;-1.688;2022-07-09T15:39:37;1;1;
70255;PMS5003;57669;52.624;-1.688;2022-07-09T15:42:02;1;1;
70255;PMS5003;57669;52.624;-1.688;2022-07-09T15:44:28;1;1;
70255;PMS5003;57669;52.624;-1.688;2022-07-09T15:49:19;4;3;
70255;PMS5003;57669;52.624;-1.688;2022-07-09T15:51:45;3;2;
70255;PMS5003;57669;52.624;-1.688;2022-07-09T15:54:10;1;1;
70255;PMS5003;57669;52.624;-1.688;2022-07-09T15:56:35;1;1;
70255;PMS5003;57669;52.624;-1.688;2022-07-09T15:59:01;0;0;
70255;PMS5003;57669;52.624;-1.688;2022-07-09T16:01:26;1;1;
70255;PMS5003;57669;52.624;-1.688;2022-07-09T16:03:51;1;1;
70255;PMS5003;57669;52.624;-1.688;2022-07-09T16:06:17;1;1;
70255;PMS5003;57669;52.624;-1.688;2022-07-09T16:08:42;0;0;
70255;PMS5003;57669;52.624;-1.688;2022-07-09T16:11:08;0;0;
70255;PMS5003;57669;52.624;-1.688;2022-07-09T16:13:33;0;0;
70255;PMS5003;57669;52.624;-1.688;2022-07-09T16:15:59;0;0;
70255;PMS5003;57669;52.624;-1.688;2022-07-09T16:18:24;1;1;
70255;PMS5003;57669;52.624;-1.688;2022-07-09T16:20:50;1;1;
70255;PMS5003;57669;52.624;-1.688;2022-07-09T16:23:15;2;1;
70255;PMS5003;57669;52.624;-1.688;2022-07-09T16:25:41;1;1;
70255;PMS5003;57669;52.624;-1.688;2022-07-09T16:28:06;1;1;
70255;PMS5003;57669;52.624;-1.688;2022-07-09T16:30:32;0;0;
70255;PMS5003;57669;52.624;-1.688;2022-07-09T16:32:57;1;1;
70255;PMS5003;57669;52.624;-1.688;2022-07-09T16:35:23;2;1;
70255;PMS5003;57669;52.624;-1.688;2022-07-09T16:37:48;2;2;
70255;PMS5003;57669;52.624;-1.688;2022-07-09T16:40:13;1;1;
70255;PMS5003;57669;52.624;-1.688;2022-07-09T16:42:39;0;0;
70255;PMS5003;57669;52.624;-1.688;2022-07-09T16:45:05;1;1;
70255;PMS5003;57669;52.624;-1.688;2022-07-09T16:47:30;1;1;
70255;PMS5003;57669;52.624;-1.688;2022-07-09T16:49:55;1;1;
70255;PMS5003;57669;52.624;-1.688;2022-07-09T16:52:21;0;0;
70255;PMS5003;57669;52.624;-1.688;2022-07-09T16:54:46;1;1;